SWA4590 KTUL-KBNA
Flight info
| Callsign | SWA4590 |
|---|---|
| Flight time | 1h 18m |
| Altitude | 39000 |
| Route | MAYJI LUKKY LOPPY CHSNE3 |
| Aircraft | B737/M-SADE2E3GIJ4RWZ/LB1D1 |
Departure
| Time | 2026-05-09 03:20 |
|---|---|
| Airport | Tulsa International Airport (KTUL) |
Arrival
| Time | 2026-05-09 04:38 |
|---|---|
| Airport | Nashville International Airport (KBNA) |
| Time | Latitude | Longitude | Altitude | Speed | Heading |
|---|---|---|---|---|---|
| 2026-05-09 02:41 | 36.19224 | -95.89001 | 667 ft | 0 kts | 155° |
| 2026-05-09 03:10 | 36.19233 | -95.89007 | 666 ft | 3 kts | 155° |
| 2026-05-09 03:10 | 36.19249 | -95.89022 | 666 ft | 3 kts | 111° |
| 2026-05-09 03:10 | 36.19251 | -95.89047 | 662 ft | 3 kts | 65° |
| 2026-05-09 03:10 | 36.19239 | -95.89065 | 664 ft | 0 kts | 35° |
| 2026-05-09 03:14 | 36.19255 | -95.89052 | 663 ft | 7 kts | 36° |
| 2026-05-09 03:14 | 36.19325 | -95.88989 | 665 ft | 16 kts | 36° |
| 2026-05-09 03:15 | 36.19367 | -95.88870 | 667 ft | 18 kts | 119° |
| 2026-05-09 03:15 | 36.19288 | -95.88740 | 665 ft | 20 kts | 118° |
| 2026-05-09 03:15 | 36.19342 | -95.88641 | 666 ft | 15 kts | 38° |
| 2026-05-09 03:15 | 36.19432 | -95.88588 | 667 ft | 15 kts | 5° |
| 2026-05-09 03:16 | 36.19540 | -95.88590 | 669 ft | 16 kts | 359° |
| 2026-05-09 03:16 | 36.19664 | -95.88592 | 667 ft | 21 kts | 359° |
| 2026-05-09 03:16 | 36.19831 | -95.88551 | 667 ft | 27 kts | 18° |
| 2026-05-09 03:16 | 36.20010 | -95.88478 | 667 ft | 28 kts | 18° |
| 2026-05-09 03:17 | 36.20187 | -95.88405 | 667 ft | 26 kts | 18° |
| 2026-05-09 03:17 | 36.20356 | -95.88370 | 667 ft | 24 kts | 2° |
| 2026-05-09 03:17 | 36.20517 | -95.88361 | 667 ft | 23 kts | 3° |
| 2026-05-09 03:17 | 36.20672 | -95.88351 | 667 ft | 22 kts | 2° |
| 2026-05-09 03:18 | 36.20824 | -95.88343 | 667 ft | 21 kts | 2° |
| 2026-05-09 03:18 | 36.20970 | -95.88333 | 667 ft | 21 kts | 4° |
| 2026-05-09 03:18 | 36.21112 | -95.88322 | 666 ft | 20 kts | 4° |
| 2026-05-09 03:18 | 36.21250 | -95.88312 | 666 ft | 20 kts | 3° |
| 2026-05-09 03:19 | 36.21380 | -95.88288 | 666 ft | 16 kts | 37° |
| 2026-05-09 03:19 | 36.21383 | -95.88168 | 667 ft | 15 kts | 120° |
| 2026-05-09 03:19 | 36.21279 | -95.88141 | 668 ft | 23 kts | 184° |
| 2026-05-09 03:19 | 36.20854 | -95.88169 | 668 ft | 99 kts | 183° |
| 2026-05-09 03:20 | 36.19955 | -95.88240 | 711 ft | 154 kts | 184° |
| 2026-05-09 03:20 | 36.18809 | -95.88293 | 1285 ft | 170 kts | 182° |
| 2026-05-09 03:20 | 36.17558 | -95.88369 | 1811 ft | 190 kts | 184° |
| 2026-05-09 03:20 | 36.16297 | -95.87978 | 2678 ft | 192 kts | 145° |
| 2026-05-09 03:21 | 36.15578 | -95.86530 | 3238 ft | 214 kts | 104° |
| 2026-05-09 03:21 | 36.15269 | -95.84615 | 3458 ft | 239 kts | 100° |
| 2026-05-09 03:21 | 36.14967 | -95.82512 | 3759 ft | 255 kts | 99° |
| 2026-05-09 03:21 | 36.14659 | -95.80330 | 4276 ft | 260 kts | 98° |
| 2026-05-09 03:22 | 36.14345 | -95.78121 | 4878 ft | 260 kts | 98° |
| 2026-05-09 03:22 | 36.14024 | -95.75906 | 5426 ft | 264 kts | 98° |
| 2026-05-09 03:22 | 36.13692 | -95.73655 | 6009 ft | 268 kts | 98° |
| 2026-05-09 03:22 | 36.13346 | -95.71307 | 6326 ft | 286 kts | 99° |
| 2026-05-09 03:23 | 36.12969 | -95.68829 | 6929 ft | 298 kts | 99° |
| 2026-05-09 03:23 | 36.12590 | -95.66336 | 7801 ft | 300 kts | 99° |
| 2026-05-09 03:23 | 36.12203 | -95.63781 | 8705 ft | 304 kts | 99° |
| 2026-05-09 03:23 | 36.11806 | -95.61188 | 9592 ft | 310 kts | 99° |
| 2026-05-09 03:24 | 36.11397 | -95.58532 | 10359 ft | 319 kts | 99° |
| 2026-05-09 03:24 | 36.10966 | -95.55733 | 10683 ft | 345 kts | 99° |
| 2026-05-09 03:24 | 36.10506 | -95.52756 | 11277 ft | 358 kts | 99° |
| 2026-05-09 03:24 | 36.10031 | -95.49693 | 12053 ft | 366 kts | 99° |
| 2026-05-09 03:25 | 36.09548 | -95.46592 | 12865 ft | 373 kts | 99° |
| 2026-05-09 03:25 | 36.09051 | -95.43407 | 13681 ft | 381 kts | 99° |
| 2026-05-09 03:25 | 36.08544 | -95.40165 | 14467 ft | 387 kts | 99° |
| 2026-05-09 03:25 | 36.08029 | -95.36872 | 15334 ft | 391 kts | 98° |
| 2026-05-09 03:26 | 36.07508 | -95.33553 | 16186 ft | 396 kts | 98° |
| 2026-05-09 03:26 | 36.06978 | -95.30175 | 16965 ft | 403 kts | 98° |
| 2026-05-09 03:26 | 36.06440 | -95.26749 | 17747 ft | 410 kts | 98° |
| 2026-05-09 03:26 | 36.05891 | -95.23266 | 18526 ft | 415 kts | 98° |
| 2026-05-09 03:27 | 36.05335 | -95.19739 | 19269 ft | 419 kts | 98° |
| 2026-05-09 03:27 | 36.04993 | -95.17585 | 19726 ft | 421 kts | 98° |
| 2026-05-09 03:27 | 36.04792 | -95.16313 | 19983 ft | 423 kts | 98° |
| 2026-05-09 03:28 | 36.04230 | -95.12771 | 20677 ft | 428 kts | 98° |
| 2026-05-09 03:28 | 36.03648 | -95.09103 | 21390 ft | 432 kts | 97° |
| 2026-05-09 03:28 | 36.03074 | -95.05487 | 22079 ft | 436 kts | 97° |
| 2026-05-09 03:28 | 36.02486 | -95.01787 | 22768 ft | 441 kts | 96° |
| 2026-05-09 03:29 | 36.02114 | -94.98041 | 23440 ft | 440 kts | 86° |
| 2026-05-09 03:29 | 36.02201 | -94.94267 | 24014 ft | 440 kts | 81° |
| 2026-05-09 03:29 | 36.02392 | -94.90476 | 24529 ft | 445 kts | 80° |
| 2026-05-09 03:29 | 36.02602 | -94.86649 | 25122 ft | 448 kts | 80° |
| 2026-05-09 03:30 | 36.02810 | -94.82797 | 25691 ft | 451 kts | 80° |
| 2026-05-09 03:30 | 36.03011 | -94.78913 | 26248 ft | 454 kts | 80° |
| 2026-05-09 03:30 | 36.03201 | -94.75002 | 26772 ft | 458 kts | 81° |
| 2026-05-09 03:30 | 36.03384 | -94.71050 | 27271 ft | 463 kts | 81° |
| 2026-05-09 03:31 | 36.03560 | -94.67063 | 27818 ft | 466 kts | 81° |
| 2026-05-09 03:31 | 36.03734 | -94.63044 | 28345 ft | 469 kts | 81° |
| 2026-05-09 03:31 | 36.03906 | -94.59006 | 28846 ft | 472 kts | 81° |
| 2026-05-09 03:31 | 36.04079 | -94.54933 | 29289 ft | 478 kts | 81° |
| 2026-05-09 03:32 | 36.04256 | -94.50795 | 29586 ft | 486 kts | 81° |
| 2026-05-09 03:32 | 36.04432 | -94.46617 | 30048 ft | 488 kts | 82° |
| 2026-05-09 03:32 | 36.04606 | -94.42415 | 30477 ft | 491 kts | 82° |
| 2026-05-09 03:32 | 36.04778 | -94.38235 | 30816 ft | 494 kts | 82° |
| 2026-05-09 03:33 | 36.04951 | -94.33979 | 31119 ft | 499 kts | 82° |
| 2026-05-09 03:33 | 36.05126 | -94.29679 | 31437 ft | 503 kts | 83° |
| 2026-05-09 03:33 | 36.05299 | -94.25347 | 31763 ft | 506 kts | 83° |
| 2026-05-09 03:33 | 36.05472 | -94.20987 | 32084 ft | 510 kts | 83° |
| 2026-05-09 03:34 | 36.05646 | -94.16585 | 32343 ft | 515 kts | 84° |
| 2026-05-09 03:34 | 36.05821 | -94.12135 | 32478 ft | 522 kts | 84° |
| 2026-05-09 03:34 | 36.05995 | -94.07636 | 32801 ft | 525 kts | 85° |
| 2026-05-09 03:34 | 36.06167 | -94.03132 | 33230 ft | 525 kts | 85° |
| 2026-05-09 03:35 | 36.06337 | -93.98626 | 33682 ft | 524 kts | 85° |
| 2026-05-09 03:35 | 36.06508 | -93.94132 | 34091 ft | 524 kts | 86° |
| 2026-05-09 03:35 | 36.06676 | -93.89633 | 34408 ft | 525 kts | 86° |
| 2026-05-09 03:35 | 36.06841 | -93.85113 | 34668 ft | 528 kts | 86° |
| 2026-05-09 03:36 | 36.07007 | -93.80570 | 34958 ft | 530 kts | 86° |
| 2026-05-09 03:36 | 36.07172 | -93.75988 | 35066 ft | 536 kts | 86° |
| 2026-05-09 03:36 | 36.07337 | -93.71360 | 35243 ft | 541 kts | 87° |
| 2026-05-09 03:36 | 36.07500 | -93.66726 | 35626 ft | 540 kts | 87° |
| 2026-05-09 03:37 | 36.07662 | -93.62085 | 36035 ft | 539 kts | 87° |
| 2026-05-09 03:37 | 36.07820 | -93.57528 | 36352 ft | 540 kts | 87° |
| 2026-05-09 03:37 | 36.07979 | -93.52876 | 36606 ft | 543 kts | 87° |
| 2026-05-09 03:37 | 36.08138 | -93.48207 | 36906 ft | 544 kts | 87° |
| 2026-05-09 03:38 | 36.08294 | -93.43526 | 37235 ft | 544 kts | 87° |
| 2026-05-09 03:38 | 36.08448 | -93.38858 | 37589 ft | 543 kts | 87° |
| 2026-05-09 03:38 | 36.08600 | -93.34190 | 37836 ft | 545 kts | 87° |
| 2026-05-09 03:38 | 36.08752 | -93.29503 | 38114 ft | 546 kts | 88° |
| 2026-05-09 03:39 | 36.08902 | -93.24817 | 38458 ft | 545 kts | 88° |
| 2026-05-09 03:39 | 36.09049 | -93.20131 | 38743 ft | 545 kts | 88° |
| 2026-05-09 03:39 | 36.09194 | -93.15444 | 38897 ft | 547 kts | 88° |
| 2026-05-09 03:39 | 36.09290 | -93.12327 | 38875 ft | 549 kts | 88° |
| 2026-05-09 03:40 | 36.09618 | -93.01362 | 38890 ft | 546 kts | 88° |
| 2026-05-09 03:40 | 36.09894 | -92.92015 | 38895 ft | 543 kts | 88° |
| 2026-05-09 03:41 | 36.10119 | -92.84199 | 38902 ft | 542 kts | 88° |
| 2026-05-09 03:41 | 36.10380 | -92.74880 | 38888 ft | 542 kts | 88° |
| 2026-05-09 03:42 | 36.10632 | -92.65566 | 38883 ft | 542 kts | 88° |
| 2026-05-09 03:42 | 36.10876 | -92.56312 | 38882 ft | 543 kts | 88° |
| 2026-05-09 03:43 | 36.11112 | -92.46978 | 38887 ft | 543 kts | 88° |
| 2026-05-09 03:43 | 36.11343 | -92.37630 | 38891 ft | 545 kts | 88° |
| 2026-05-09 03:44 | 36.11570 | -92.28244 | 38903 ft | 546 kts | 89° |
| 2026-05-09 03:44 | 36.11789 | -92.18834 | 38896 ft | 548 kts | 89° |
| 2026-05-09 03:45 | 36.12003 | -92.09407 | 38890 ft | 549 kts | 89° |
| 2026-05-09 03:45 | 36.12208 | -91.99946 | 38890 ft | 549 kts | 89° |
| 2026-05-09 03:46 | 36.12404 | -91.90493 | 38880 ft | 550 kts | 89° |
| 2026-05-09 03:46 | 36.12595 | -91.81044 | 38887 ft | 549 kts | 89° |
| 2026-05-09 03:47 | 36.12777 | -91.71609 | 38887 ft | 548 kts | 89° |
| 2026-05-09 03:47 | 36.12953 | -91.62194 | 38886 ft | 547 kts | 90° |
| 2026-05-09 03:48 | 36.12978 | -91.52801 | 38886 ft | 545 kts | 97° |
| 2026-05-09 03:48 | 36.11763 | -91.43614 | 38901 ft | 541 kts | 105° |
| 2026-05-09 03:49 | 36.10311 | -91.34478 | 38895 ft | 542 kts | 105° |
| 2026-05-09 03:49 | 36.08892 | -91.25320 | 38891 ft | 543 kts | 104° |
| 2026-05-09 03:50 | 36.07515 | -91.16125 | 38891 ft | 544 kts | 104° |
| 2026-05-09 03:50 | 36.06146 | -91.06906 | 38896 ft | 546 kts | 104° |
| 2026-05-09 03:51 | 36.04765 | -90.97676 | 38900 ft | 547 kts | 105° |
| 2026-05-09 03:51 | 36.03368 | -90.88422 | 38910 ft | 547 kts | 105° |
| 2026-05-09 03:52 | 36.01973 | -90.79238 | 38907 ft | 548 kts | 105° |
| 2026-05-09 03:52 | 36.00563 | -90.69999 | 38896 ft | 548 kts | 105° |
| 2026-05-09 03:53 | 35.99143 | -90.60753 | 38899 ft | 548 kts | 105° |
| 2026-05-09 03:53 | 35.97709 | -90.51477 | 38896 ft | 549 kts | 105° |
| 2026-05-09 03:54 | 35.96279 | -90.42227 | 38892 ft | 549 kts | 106° |
| 2026-05-09 03:54 | 35.94833 | -90.32974 | 38900 ft | 549 kts | 106° |
| 2026-05-09 03:55 | 35.93382 | -90.23737 | 38905 ft | 548 kts | 106° |
| 2026-05-09 03:55 | 35.91925 | -90.14497 | 38905 ft | 548 kts | 106° |
| 2026-05-09 03:56 | 35.90467 | -90.05298 | 38900 ft | 548 kts | 106° |
| 2026-05-09 03:56 | 35.88999 | -89.96069 | 38898 ft | 549 kts | 107° |
| 2026-05-09 03:57 | 35.87524 | -89.86843 | 38898 ft | 548 kts | 107° |
| 2026-05-09 03:57 | 35.86040 | -89.77610 | 38894 ft | 549 kts | 107° |
| 2026-05-09 03:58 | 35.84544 | -89.68380 | 38921 ft | 549 kts | 107° |
| 2026-05-09 03:58 | 35.83041 | -89.59147 | 38914 ft | 549 kts | 107° |
| 2026-05-09 03:59 | 35.81534 | -89.49930 | 38917 ft | 549 kts | 107° |
| 2026-05-09 03:59 | 35.80031 | -89.40770 | 38914 ft | 548 kts | 107° |
| 2026-05-09 04:00 | 35.78513 | -89.31575 | 38917 ft | 548 kts | 107° |
| 2026-05-09 04:00 | 35.76989 | -89.22385 | 38871 ft | 548 kts | 107° |
| 2026-05-09 04:01 | 35.76220 | -89.17771 | 38401 ft | 552 kts | 107° |
| 2026-05-09 04:01 | 35.75447 | -89.13145 | 37800 ft | 550 kts | 107° |
| 2026-05-09 04:01 | 35.74675 | -89.08523 | 37208 ft | 549 kts | 107° |
| 2026-05-09 04:01 | 35.73905 | -89.03926 | 36696 ft | 547 kts | 107° |
| 2026-05-09 04:02 | 35.73137 | -88.99353 | 36131 ft | 546 kts | 107° |
| 2026-05-09 04:02 | 35.72367 | -88.94785 | 35535 ft | 546 kts | 107° |
| 2026-05-09 04:02 | 35.71593 | -88.90204 | 34898 ft | 546 kts | 107° |
| 2026-05-09 04:02 | 35.70827 | -88.85681 | 34224 ft | 548 kts | 107° |
| 2026-05-09 04:03 | 35.70160 | -88.81047 | 33441 ft | 556 kts | 99° |
| 2026-05-09 04:03 | 35.70307 | -88.76289 | 32908 ft | 557 kts | 85° |
| 2026-05-09 04:03 | 35.70784 | -88.71557 | 32165 ft | 557 kts | 84° |
| 2026-05-09 04:03 | 35.71289 | -88.66839 | 31540 ft | 554 kts | 84° |
| 2026-05-09 04:04 | 35.71772 | -88.62157 | 31010 ft | 548 kts | 84° |
| 2026-05-09 04:04 | 35.72217 | -88.57529 | 30484 ft | 542 kts | 85° |
| 2026-05-09 04:04 | 35.72632 | -88.52928 | 29950 ft | 537 kts | 85° |
| 2026-05-09 04:04 | 35.73027 | -88.48386 | 29327 ft | 531 kts | 85° |
| 2026-05-09 04:05 | 35.73412 | -88.43880 | 28733 ft | 525 kts | 85° |
| 2026-05-09 04:05 | 35.73787 | -88.39445 | 28185 ft | 519 kts | 85° |
| 2026-05-09 04:05 | 35.74159 | -88.35051 | 27640 ft | 513 kts | 85° |
| 2026-05-09 04:05 | 35.74525 | -88.30718 | 27144 ft | 507 kts | 85° |
| 2026-05-09 04:06 | 35.74893 | -88.26420 | 26589 ft | 502 kts | 85° |
| 2026-05-09 04:06 | 35.75256 | -88.22163 | 26049 ft | 497 kts | 85° |
| 2026-05-09 04:06 | 35.75606 | -88.18008 | 25527 ft | 491 kts | 85° |
| 2026-05-09 04:06 | 35.75813 | -88.13846 | 25129 ft | 483 kts | 89° |
| 2026-05-09 04:07 | 35.75878 | -88.09734 | 24623 ft | 478 kts | 91° |
| 2026-05-09 04:07 | 35.75887 | -88.05659 | 24106 ft | 473 kts | 91° |
| 2026-05-09 04:07 | 35.75891 | -88.01619 | 23567 ft | 471 kts | 90° |
| 2026-05-09 04:07 | 35.75911 | -87.97599 | 22950 ft | 467 kts | 90° |
| 2026-05-09 04:08 | 35.75947 | -87.93649 | 22374 ft | 454 kts | 89° |
| 2026-05-09 04:08 | 35.75993 | -87.89823 | 21850 ft | 443 kts | 89° |
| 2026-05-09 04:08 | 35.76041 | -87.86045 | 21355 ft | 439 kts | 89° |
| 2026-05-09 04:08 | 35.76088 | -87.82299 | 20849 ft | 436 kts | 89° |
| 2026-05-09 04:09 | 35.76133 | -87.78587 | 20356 ft | 432 kts | 89° |
| 2026-05-09 04:09 | 35.76178 | -87.74899 | 19869 ft | 429 kts | 89° |
| 2026-05-09 04:09 | 35.76218 | -87.71244 | 19386 ft | 425 kts | 89° |
| 2026-05-09 04:09 | 35.76369 | -87.67630 | 18905 ft | 421 kts | 79° |
| 2026-05-09 04:10 | 35.77258 | -87.64235 | 18551 ft | 411 kts | 65° |
| 2026-05-09 04:10 | 35.78316 | -87.61038 | 18166 ft | 406 kts | 65° |
| 2026-05-09 04:10 | 35.79373 | -87.57791 | 17747 ft | 400 kts | 66° |
| 2026-05-09 04:10 | 35.80379 | -87.54621 | 17408 ft | 395 kts | 66° |
| 2026-05-09 04:11 | 35.81346 | -87.51515 | 17054 ft | 392 kts | 67° |
| 2026-05-09 04:11 | 35.82313 | -87.48392 | 16700 ft | 389 kts | 67° |
| 2026-05-09 04:11 | 35.83296 | -87.45303 | 16348 ft | 386 kts | 65° |
| 2026-05-09 04:11 | 35.84349 | -87.42271 | 16001 ft | 383 kts | 64° |
| 2026-05-09 04:12 | 35.85423 | -87.39273 | 15657 ft | 381 kts | 64° |
| 2026-05-09 04:12 | 35.86496 | -87.36292 | 15315 ft | 380 kts | 64° |
| 2026-05-09 04:12 | 35.87559 | -87.33318 | 14975 ft | 378 kts | 64° |
| 2026-05-09 04:12 | 35.88612 | -87.30353 | 14640 ft | 376 kts | 64° |
| 2026-05-09 04:13 | 35.89653 | -87.27404 | 14302 ft | 374 kts | 65° |
| 2026-05-09 04:13 | 35.90687 | -87.24463 | 13964 ft | 373 kts | 65° |
| 2026-05-09 04:13 | 35.91715 | -87.21526 | 13614 ft | 372 kts | 65° |
| 2026-05-09 04:13 | 35.92736 | -87.18605 | 13235 ft | 370 kts | 65° |
| 2026-05-09 04:14 | 35.93752 | -87.15696 | 12883 ft | 367 kts | 65° |
| 2026-05-09 04:14 | 35.94759 | -87.12814 | 12538 ft | 365 kts | 66° |
| 2026-05-09 04:14 | 35.95760 | -87.09944 | 12201 ft | 362 kts | 66° |
| 2026-05-09 04:14 | 35.96753 | -87.07096 | 11874 ft | 360 kts | 66° |
| 2026-05-09 04:15 | 35.97738 | -87.04269 | 11555 ft | 358 kts | 66° |
| 2026-05-09 04:15 | 35.98715 | -87.01456 | 11225 ft | 356 kts | 66° |
| 2026-05-09 04:15 | 35.99688 | -86.98657 | 10906 ft | 352 kts | 66° |
| 2026-05-09 04:15 | 36.00646 | -86.95896 | 10579 ft | 347 kts | 66° |
| 2026-05-09 04:16 | 36.01589 | -86.93177 | 10272 ft | 342 kts | 67° |
| 2026-05-09 04:16 | 36.02515 | -86.90506 | 9954 ft | 332 kts | 67° |
| 2026-05-09 04:16 | 36.03393 | -86.87974 | 9906 ft | 310 kts | 67° |
| 2026-05-09 04:16 | 36.04238 | -86.85537 | 9409 ft | 307 kts | 68° |
| 2026-05-09 04:17 | 36.05156 | -86.83217 | 9091 ft | 296 kts | 54° |
| 2026-05-09 04:17 | 36.06647 | -86.81571 | 8890 ft | 281 kts | 28° |
| 2026-05-09 04:17 | 36.08391 | -86.80643 | 8713 ft | 274 kts | 15° |
| 2026-05-09 04:17 | 36.10220 | -86.79957 | 8532 ft | 274 kts | 13° |
| 2026-05-09 04:18 | 36.12027 | -86.79293 | 8344 ft | 265 kts | 14° |
| 2026-05-09 04:18 | 36.13758 | -86.78638 | 8165 ft | 258 kts | 14° |
| 2026-05-09 04:18 | 36.15464 | -86.77983 | 8043 ft | 255 kts | 14° |
| 2026-05-09 04:18 | 36.17179 | -86.77374 | 8009 ft | 257 kts | 12° |
| 2026-05-09 04:19 | 36.18903 | -86.76816 | 7927 ft | 254 kts | 12° |
| 2026-05-09 04:19 | 36.20583 | -86.76197 | 7666 ft | 252 kts | 16° |
| 2026-05-09 04:19 | 36.22246 | -86.75511 | 7282 ft | 252 kts | 17° |
| 2026-05-09 04:19 | 36.23913 | -86.74823 | 6903 ft | 253 kts | 17° |
| 2026-05-09 04:20 | 36.25581 | -86.74145 | 6567 ft | 250 kts | 17° |
| 2026-05-09 04:20 | 36.27240 | -86.73477 | 6274 ft | 252 kts | 17° |
| 2026-05-09 04:20 | 36.28903 | -86.72814 | 6067 ft | 249 kts | 17° |
| 2026-05-09 04:20 | 36.30554 | -86.72160 | 5851 ft | 249 kts | 17° |
| 2026-05-09 04:21 | 36.32204 | -86.71503 | 5609 ft | 248 kts | 17° |
| 2026-05-09 04:21 | 36.33844 | -86.70829 | 5364 ft | 248 kts | 22° |
| 2026-05-09 04:21 | 36.35853 | -86.67671 | 5025 ft | 232 kts | 89° |
| 2026-05-09 04:22 | 36.35610 | -86.65842 | 4931 ft | 203 kts | 121° |
| 2026-05-09 04:22 | 36.34993 | -86.64385 | 4843 ft | 185 kts | 125° |
| 2026-05-09 04:22 | 36.34359 | -86.62967 | 4582 ft | 185 kts | 126° |
| 2026-05-09 04:22 | 36.33747 | -86.61593 | 4372 ft | 183 kts | 126° |
| 2026-05-09 04:23 | 36.33136 | -86.60218 | 4136 ft | 182 kts | 126° |
| 2026-05-09 04:23 | 36.32385 | -86.58972 | 4037 ft | 178 kts | 153° |
| 2026-05-09 04:23 | 36.31293 | -86.58752 | 4028 ft | 155 kts | 198° |
| 2026-05-09 04:23 | 36.30301 | -86.59150 | 3995 ft | 147 kts | 199° |
| 2026-05-09 04:24 | 36.29329 | -86.59523 | 3834 ft | 146 kts | 200° |
| 2026-05-09 04:24 | 36.28364 | -86.59902 | 3635 ft | 145 kts | 200° |
| 2026-05-09 04:24 | 36.27407 | -86.60285 | 3446 ft | 144 kts | 200° |
| 2026-05-09 04:24 | 36.26455 | -86.60666 | 3263 ft | 143 kts | 199° |
| 2026-05-09 04:25 | 36.25512 | -86.61045 | 3069 ft | 142 kts | 199° |
| 2026-05-09 04:25 | 36.24565 | -86.61425 | 2881 ft | 143 kts | 200° |
| 2026-05-09 04:25 | 36.23642 | -86.61795 | 2690 ft | 134 kts | 200° |
| 2026-05-09 04:25 | 36.22792 | -86.62137 | 2548 ft | 122 kts | 199° |
| 2026-05-09 04:26 | 36.21982 | -86.62463 | 2360 ft | 120 kts | 199° |
| 2026-05-09 04:26 | 36.21461 | -86.62672 | 2259 ft | 120 kts | 199° |
| 2026-05-09 04:26 | 36.20672 | -86.62990 | 2103 ft | 119 kts | 199° |
| 2026-05-09 04:26 | 36.19877 | -86.63309 | 1948 ft | 121 kts | 199° |
| 2026-05-09 04:27 | 36.19094 | -86.63623 | 1775 ft | 117 kts | 199° |
| 2026-05-09 04:27 | 36.18319 | -86.63936 | 1604 ft | 118 kts | 198° |
| 2026-05-09 04:27 | 36.17519 | -86.64256 | 1455 ft | 125 kts | 198° |
| 2026-05-09 04:27 | 36.16675 | -86.64596 | 1287 ft | 130 kts | 198° |
| 2026-05-09 04:28 | 36.15797 | -86.64949 | 1104 ft | 133 kts | 197° |
| 2026-05-09 04:28 | 36.14928 | -86.65338 | 932 ft | 132 kts | 204° |
| 2026-05-09 04:28 | 36.14095 | -86.65843 | 1198 ft | 139 kts | 214° |
| 2026-05-09 04:28 | 36.13267 | -86.66536 | 1884 ft | 155 kts | 202° |
| 2026-05-09 04:29 | 36.12042 | -86.66572 | 1960 ft | 207 kts | 165° |
| 2026-05-09 04:29 | 36.10790 | -86.65505 | 1994 ft | 230 kts | 134° |
| 2026-05-09 04:29 | 36.10131 | -86.63649 | 2421 ft | 247 kts | 101° |
| 2026-05-09 04:29 | 36.10378 | -86.61527 | 3413 ft | 257 kts | 71° |
| 2026-05-09 04:30 | 36.11389 | -86.59699 | 3823 ft | 260 kts | 41° |
| 2026-05-09 04:30 | 36.12973 | -86.58600 | 4000 ft | 266 kts | 20° |
| 2026-05-09 04:30 | 36.14729 | -86.57846 | 4013 ft | 268 kts | 17° |
| 2026-05-09 04:30 | 36.16500 | -86.57130 | 4007 ft | 267 kts | 17° |
| 2026-05-09 04:31 | 36.18268 | -86.56420 | 4001 ft | 266 kts | 17° |
| 2026-05-09 04:31 | 36.20033 | -86.55727 | 4010 ft | 264 kts | 17° |
| 2026-05-09 04:31 | 36.21748 | -86.55051 | 3994 ft | 253 kts | 17° |
| 2026-05-09 04:31 | 36.23387 | -86.54401 | 3977 ft | 241 kts | 17° |
| 2026-05-09 04:32 | 36.24951 | -86.53782 | 3948 ft | 231 kts | 17° |
| 2026-05-09 04:32 | 36.26437 | -86.53286 | 3879 ft | 217 kts | 1° |
| 2026-05-09 04:32 | 36.27841 | -86.53658 | 3683 ft | 201 kts | 323° |
| 2026-05-09 04:32 | 36.28746 | -86.54876 | 3426 ft | 189 kts | 293° |
| 2026-05-09 04:33 | 36.29373 | -86.56304 | 3180 ft | 188 kts | 291° |
| 2026-05-09 04:33 | 36.29815 | -86.57798 | 3043 ft | 183 kts | 266° |
| 2026-05-09 04:33 | 36.29379 | -86.59151 | 3013 ft | 168 kts | 219° |
| 2026-05-09 04:33 | 36.28389 | -86.59762 | 3005 ft | 153 kts | 204° |
| 2026-05-09 04:34 | 36.27429 | -86.60230 | 3001 ft | 146 kts | 202° |
| 2026-05-09 04:34 | 36.26476 | -86.60644 | 2999 ft | 143 kts | 200° |
| 2026-05-09 04:34 | 36.25536 | -86.61033 | 2981 ft | 143 kts | 199° |
| 2026-05-09 04:34 | 36.24570 | -86.61424 | 2864 ft | 150 kts | 200° |
| 2026-05-09 04:35 | 36.23590 | -86.61815 | 2690 ft | 146 kts | 200° |
| 2026-05-09 04:35 | 36.22647 | -86.62196 | 2495 ft | 138 kts | 199° |
| 2026-05-09 04:35 | 36.21785 | -86.62542 | 2334 ft | 123 kts | 200° |
| 2026-05-09 04:35 | 36.20987 | -86.62864 | 2162 ft | 118 kts | 200° |
| 2026-05-09 04:36 | 36.20207 | -86.63178 | 2016 ft | 116 kts | 199° |
| 2026-05-09 04:36 | 36.19449 | -86.63482 | 1850 ft | 115 kts | 199° |
| 2026-05-09 04:36 | 36.18680 | -86.63791 | 1706 ft | 114 kts | 199° |
| 2026-05-09 04:36 | 36.17934 | -86.64092 | 1548 ft | 117 kts | 198° |
| 2026-05-09 04:37 | 36.17129 | -86.64414 | 1366 ft | 125 kts | 198° |
| 2026-05-09 04:37 | 36.16290 | -86.64751 | 1202 ft | 129 kts | 198° |
| 2026-05-09 04:37 | 36.15427 | -86.65098 | 1026 ft | 130 kts | 198° |
| 2026-05-09 04:37 | 36.14570 | -86.65442 | 834 ft | 129 kts | 198° |
| 2026-05-09 04:38 | 36.13735 | -86.65787 | 677 ft | 126 kts | 197° |
| 2026-05-09 04:38 | 36.12907 | -86.66126 | 568 ft | 120 kts | 198° |
| 2026-05-09 04:38 | 36.12195 | -86.66406 | 573 ft | 91 kts | 198° |
| 2026-05-09 04:38 | 36.11774 | -86.66574 | 582 ft | 38 kts | 198° |
| 2026-05-09 04:39 | 36.11548 | -86.66668 | 589 ft | 32 kts | 199° |
| 2026-05-09 04:39 | 36.11391 | -86.66749 | 591 ft | 17 kts | 236° |
| 2026-05-09 04:39 | 36.11422 | -86.66846 | 591 ft | 12 kts | 352° |
| 2026-05-09 04:39 | 36.11503 | -86.66819 | 590 ft | 13 kts | 18° |
| 2026-05-09 04:40 | 36.11604 | -86.66777 | 587 ft | 18 kts | 20° |
| 2026-05-09 04:40 | 36.11732 | -86.66723 | 585 ft | 21 kts | 18° |
| 2026-05-09 04:40 | 36.11877 | -86.66663 | 579 ft | 23 kts | 21° |
| 2026-05-09 04:40 | 36.12030 | -86.66602 | 581 ft | 23 kts | 19° |
| 2026-05-09 04:41 | 36.12171 | -86.66549 | 569 ft | 21 kts | 15° |
| 2026-05-09 04:41 | 36.12290 | -86.66580 | 568 ft | 19 kts | 299° |
| 2026-05-09 04:41 | 36.12333 | -86.66731 | 570 ft | 18 kts | 288° |
| 2026-05-09 04:41 | 36.12380 | -86.66870 | 572 ft | 18 kts | 307° |
| 2026-05-09 04:42 | 36.12468 | -86.66950 | 573 ft | 16 kts | 356° |
| 2026-05-09 04:42 | 36.12565 | -86.66898 | 574 ft | 15 kts | 31° |
| 2026-05-09 04:42 | 36.12659 | -86.66831 | 574 ft | 16 kts | 36° |
| 2026-05-09 04:42 | 36.12745 | -86.66741 | 567 ft | 13 kts | 39° |
| 2026-05-09 04:43 | 36.12762 | -86.66684 | 566 ft | 5 kts | 90° |
| 2026-05-09 04:43 | 36.12761 | -86.66659 | 568 ft | 0 kts | 93° |